Time;durP1;ratioP1;P1;durP2;ratioP2;P2;SDS_P1;SDS_P2;PMS_P1;PMS_P2;Temp;Humidity;BMP_temperature;BMP_pressure;BME280_temperature;BME280_humidity;BME280_pressure;Samples;Min_cycle;Max_cycle;Signal;HPM_P1;HPM_P2
2023/12/16 00:01:23;;;;;;;54.13;20.20;;;2.40;99.90;;;;;;5016245;28;20037;-90
2023/12/16 00:03:49;;;;;;;46.83;18.38;;;2.50;99.90;;;;;;5016951;28;20032;-90
2023/12/16 00:06:18;;;;;;;54.08;20.10;;;2.50;99.90;;;;;;5016621;28;20076;-90
2023/12/16 00:08:44;;;;;;;60.92;22.85;;;2.60;99.90;;;;;;5019714;28;20038;-90
2023/12/16 00:11:09;;;;;;;62.50;21.90;;;2.50;99.90;;;;;;5019876;28;20195;-90
2023/12/16 00:13:35;;;;;;;60.13;23.65;;;2.50;99.90;;;;;;5019920;28;20026;-90
2023/12/16 00:16:01;;;;;;;69.30;24.38;;;2.50;99.90;;;;;;5020137;28;20393;-89
2023/12/16 00:18:26;;;;;;;70.57;26.88;;;2.50;99.90;;;;;;5020036;28;20402;-90
2023/12/16 00:20:52;;;;;;;86.32;29.98;;;2.60;99.90;;;;;;5036735;28;20021;-90
2023/12/16 00:23:18;;;;;;;91.43;30.50;;;2.60;99.90;;;;;;5020133;28;20112;-90
2023/12/16 00:25:43;;;;;;;69.75;24.90;;;2.60;99.90;;;;;;5036193;28;20030;-89
2023/12/16 00:28:09;;;;;;;73.32;26.50;;;2.50;99.90;;;;;;5019663;28;20041;-90
2023/12/16 00:30:35;;;;;;;73.90;25.05;;;2.40;99.90;;;;;;5036164;28;20032;-90
2023/12/16 00:33:00;;;;;;;68.53;22.88;;;2.40;99.90;;;;;;5037128;28;20420;-90
2023/12/16 00:35:26;;;;;;;76.43;25.63;;;2.30;99.90;;;;;;5019519;28;20032;-90
2023/12/16 00:37:52;;;;;;;60.58;22.55;;;2.30;99.90;;;;;;5019392;28;20029;-90
2023/12/16 00:40:18;;;;;;;69.55;24.23;;;2.20;99.90;;;;;;5036040;28;20116;-90
2023/12/16 00:42:44;;;;;;;65.82;24.33;;;2.20;99.90;;;;;;5035860;28;20354;-90
2023/12/16 00:45:10;;;;;;;64.72;22.85;;;2.30;99.90;;;;;;5019299;28;20083;-89
2023/12/16 00:47:37;;;;;;;90.95;27.85;;;2.20;99.90;;;;;;5035363;28;20037;-90
2023/12/16 00:50:02;;;;;;;68.72;24.10;;;2.30;99.90;;;;;;5019202;28;20036;-90
2023/12/16 00:52:28;;;;;;;80.97;28.73;;;2.30;99.90;;;;;;5036500;28;20030;-90
2023/12/16 00:54:54;;;;;;;63.97;23.90;;;2.30;99.90;;;;;;5036111;28;20040;-90
2023/12/16 00:57:20;;;;;;;65.43;24.45;;;2.30;99.90;;;;;;5035623;28;20022;-90
2023/12/16 00:59:46;;;;;;;60.97;22.48;;;2.30;99.90;;;;;;5019511;28;20033;-90
2023/12/16 01:02:11;;;;;;;61.80;22.40;;;2.20;99.90;;;;;;5035813;28;20484;-91
2023/12/16 01:04:37;;;;;;;56.92;22.98;;;2.20;99.90;;;;;;5037213;28;20072;-90
2023/12/16 01:07:03;;;;;;;62.17;23.90;;;2.20;99.90;;;;;;5035961;28;20037;-90
2023/12/16 01:09:29;;;;;;;61.47;23.30;;;2.10;99.90;;;;;;5035940;28;20120;-90
2023/12/16 01:11:55;;;;;;;65.72;24.58;;;2.10;99.90;;;;;;5019001;28;20030;-90
2023/12/16 01:14:20;;;;;;;58.53;23.27;;;2.00;99.90;;;;;;5019607;28;20033;-90
2023/12/16 01:16:46;;;;;;;64.53;21.27;;;1.90;99.90;;;;;;5035545;28;20030;-90
2023/12/16 01:19:12;;;;;;;54.72;21.63;;;1.90;99.90;;;;;;5018132;28;20025;-90
2023/12/16 01:21:41;;;;;;;56.65;19.27;;;1.80;99.90;;;;;;5035472;28;20495;-90
2023/12/16 01:24:07;;;;;;;44.90;17.02;;;1.80;99.90;;;;;;5035445;28;20021;-89
2023/12/16 01:26:33;;;;;;;41.67;16.02;;;1.60;99.90;;;;;;5035455;28;20035;-89
2023/12/16 01:28:59;;;;;;;42.75;16.70;;;1.60;99.90;;;;;;5035432;28;20063;-89
2023/12/16 01:31:24;;;;;;;45.22;18.58;;;1.50;99.90;;;;;;5035367;28;20397;-89
2023/12/16 01:33:51;;;;;;;46.47;16.45;;;1.50;99.90;;;;;;5035363;28;20068;-90
2023/12/16 01:36:17;;;;;;;41.13;17.38;;;1.40;99.90;;;;;;5018275;28;20033;-89
2023/12/16 01:38:42;;;;;;;48.00;19.35;;;1.50;99.90;;;;;;5034840;28;20031;-90
2023/12/16 01:41:08;;;;;;;49.78;17.42;;;1.50;99.90;;;;;;5034897;28;20078;-89
2023/12/16 01:43:34;;;;;;;51.40;18.02;;;1.60;99.90;;;;;;5036225;28;20388;-90
2023/12/16 01:46:04;;;;;;;51.22;18.42;;;1.60;99.90;;;;;;5035046;28;20060;-90
2023/12/16 01:48:31;;;;;;;47.70;18.57;;;1.60;99.90;;;;;;5018438;28;20497;-90
2023/12/16 01:50:58;;;;;;;56.30;19.95;;;1.60;99.90;;;;;;5034553;28;20040;-90
2023/12/16 01:53:26;;;;;;;58.05;20.88;;;1.60;99.90;;;;;;5018058;28;20030;-89
2023/12/16 01:55:53;;;;;;;54.53;21.10;;;1.60;99.90;;;;;;5034953;28;20033;-90
2023/12/16 01:58:19;;;;;;;60.47;20.65;;;1.60;99.90;;;;;;5018385;28;20030;-90
2023/12/16 02:00:47;;;;;;;46.65;20.95;;;1.70;99.90;;;;;;5035864;28;20026;-90
2023/12/16 02:03:17;;;;;;;61.58;21.50;;;1.60;99.90;;;;;;5034310;28;20041;-90
2023/12/16 02:05:43;;;;;;;48.25;19.95;;;1.70;99.90;;;;;;5018137;28;20435;-90
2023/12/16 02:08:09;;;;;;;42.88;18.80;;;1.80;99.90;;;;;;5033957;28;20041;-90
2023/12/16 02:10:34;;;;;;;61.60;23.75;;;1.80;99.90;;;;;;5034474;28;20037;-89
2023/12/16 02:13:04;;;;;;;54.88;22.77;;;1.90;99.90;;;;;;5034129;28;20061;-89
2023/12/16 02:15:30;;;;;;;55.70;24.13;;;1.90;99.90;;;;;;5034034;28;20043;-89
2023/12/16 02:17:56;;;;;;;61.08;23.85;;;2.00;99.90;;;;;;5017464;28;20025;-89
2023/12/16 02:20:22;;;;;;;57.80;23.88;;;2.00;99.90;;;;;;5033864;28;20033;-90
2023/12/16 02:22:48;;;;;;;63.67;23.27;;;2.00;99.90;;;;;;5017430;28;20579;-89
2023/12/16 02:25:15;;;;;;;52.03;23.20;;;2.10;99.90;;;;;;5033446;28;20040;-89
2023/12/16 02:27:45;;;;;;;68.80;27.25;;;2.10;99.90;;;;;;5033841;28;20128;-90
2023/12/16 02:30:11;;;;;;;66.07;27.60;;;2.20;99.90;;;;;;5033371;28;20041;-90
2023/12/16 02:32:37;;;;;;;87.30;31.95;;;2.20;99.90;;;;;;5017328;28;20063;-89
2023/12/16 02:35:03;;;;;;;66.80;26.10;;;2.30;99.90;;;;;;5033498;28;20068;-90
2023/12/16 02:37:32;;;;;;;75.53;27.20;;;2.30;99.90;;;;;;5033761;28;20068;-90
2023/12/16 02:39:57;;;;;;;69.03;26.55;;;2.30;99.90;;;;;;5016881;28;20456;-90
2023/12/16 02:42:23;;;;;;;79.57;31.63;;;2.30;99.90;;;;;;5034835;28;20022;-90
2023/12/16 02:44:49;;;;;;;80.85;31.25;;;2.30;99.90;;;;;;5033623;28;20464;-89
2023/12/16 02:47:14;;;;;;;65.90;28.60;;;2.30;99.90;;;;;;5017150;28;20060;-90
2023/12/16 02:49:40;;;;;;;76.10;30.90;;;2.30;99.90;;;;;;5033659;28;20036;-90
2023/12/16 02:52:06;;;;;;;67.43;28.20;;;2.30;99.90;;;;;;5034739;28;20033;-90
2023/12/16 02:54:34;;;;;;;68.93;29.35;;;2.40;99.90;;;;;;5017083;28;20045;-90
2023/12/16 02:56:59;;;;;;;69.45;29.60;;;2.40;99.90;;;;;;5017245;28;20100;-89
2023/12/16 02:59:25;;;;;;;78.88;31.58;;;2.40;99.90;;;;;;5016713;28;20075;-89
2023/12/16 03:01:51;;;;;;;69.43;28.42;;;2.40;99.90;;;;;;5033528;28;20037;-89
2023/12/16 03:04:16;;;;;;;68.20;28.67;;;2.40;99.90;;;;;;5033296;28;20021;-89
2023/12/16 03:06:43;;;;;;;76.47;31.15;;;2.40;99.90;;;;;;5016713;28;20037;-89
2023/12/16 03:09:09;;;;;;;76.53;30.30;;;2.50;99.90;;;;;;5032935;28;20034;-89
2023/12/16 03:11:35;;;;;;;67.57;28.67;;;2.50;99.90;;;;;;5017026;28;20424;-89
2023/12/16 03:14:01;;;;;;;79.03;30.10;;;2.50;99.90;;;;;;5016728;28;20040;-90
2023/12/16 03:16:26;;;;;;;82.43;28.50;;;2.50;99.90;;;;;;5033205;28;20100;-90
2023/12/16 03:18:52;;;;;;;67.18;28.63;;;2.50;99.90;;;;;;5016838;28;20034;-90
2023/12/16 03:21:18;;;;;;;72.95;30.35;;;2.50;99.90;;;;;;5033244;28;20108;-90
2023/12/16 03:23:43;;;;;;;92.85;34.55;;;2.50;99.90;;;;;;5016367;28;20048;-89
2023/12/16 03:26:09;;;;;;;79.05;31.92;;;2.50;99.90;;;;;;5016546;28;20025;-90
2023/12/16 03:28:35;;;;;;;83.47;32.42;;;2.50;99.90;;;;;;5016804;28;20036;-89
2023/12/16 03:31:00;;;;;;;89.30;33.58;;;2.60;99.90;;;;;;5016525;28;20040;-89
2023/12/16 03:33:26;;;;;;;80.15;31.77;;;2.60;99.90;;;;;;5016597;28;20030;-89
2023/12/16 03:35:52;;;;;;;78.20;28.73;;;2.50;99.90;;;;;;5016693;28;20040;-90
2023/12/16 03:38:18;;;;;;;75.03;28.90;;;2.50;99.90;;;;;;5016574;28;20034;-90
2023/12/16 03:40:43;;;;;;;86.47;29.42;;;2.50;99.90;;;;;;5016729;28;20392;-89
2023/12/16 03:43:09;;;;;;;84.40;28.33;;;2.60;99.90;;;;;;5035149;28;20045;-90
2023/12/16 03:45:57;;;;;;;77.15;26.13;;;2.60;99.90;;;;;;5020123;28;20087;-89
2023/12/16 03:48:24;;;;;;;80.18;24.98;;;2.60;99.90;;;;;;5037227;28;20030;-89
2023/12/16 03:50:49;;;;;;;58.47;21.63;;;2.60;99.90;;;;;;5020280;28;20040;-89
2023/12/16 03:53:15;;;;;;;62.60;22.05;;;2.70;99.90;;;;;;5036239;28;20548;-90
2023/12/16 03:55:41;;;;;;;70.13;21.85;;;2.80;99.90;;;;;;5020248;28;20120;-90
2023/12/16 03:58:06;;;;;;;80.05;24.10;;;2.80;99.90;;;;;;5020159;28;20029;-90
2023/12/16 04:00:32;;;;;;;91.85;25.52;;;2.80;99.90;;;;;;5020210;28;20029;-89
2023/12/16 04:02:58;;;;;;;78.70;25.27;;;2.80;99.90;;;;;;5020330;28;20021;-89
2023/12/16 04:05:23;;;;;;;83.50;29.27;;;2.80;99.90;;;;;;5019810;28;20082;-89
2023/12/16 04:07:49;;;;;;;67.22;26.02;;;2.80;99.90;;;;;;5020205;28;20582;-90
2023/12/16 04:10:15;;;;;;;73.28;29.95;;;2.80;99.90;;;;;;5036244;28;20358;-90
2023/12/16 04:12:41;;;;;;;84.28;26.85;;;2.70;99.90;;;;;;5019865;28;20033;-90
2023/12/16 04:15:09;;;;;;;74.80;27.95;;;2.70;99.90;;;;;;5036322;28;20374;-90
2023/12/16 04:17:54;;;;;;;74.20;26.88;;;2.70;99.90;;;;;;5019608;28;20124;-89
2023/12/16 04:20:19;;;;;;;81.35;29.00;;;2.70;99.90;;;;;;5036259;28;20025;-89
2023/12/16 04:22:45;;;;;;;92.72;30.90;;;2.70;99.90;;;;;;5036239;28;20112;-89
2023/12/16 04:25:11;;;;;;;105.88;34.70;;;2.60;99.90;;;;;;5019520;28;20033;-89
2023/12/16 04:27:37;;;;;;;90.28;32.13;;;2.60;99.90;;;;;;5018939;28;20037;-90
2023/12/16 04:30:06;;;;;;;98.40;32.03;;;2.50;99.90;;;;;;5037470;28;20025;-89
2023/12/16 04:32:31;;;;;;;89.35;30.42;;;2.60;99.90;;;;;;5035863;28;20056;-90
2023/12/16 04:34:57;;;;;;;87.78;31.75;;;2.60;99.90;;;;;;5035985;28;20469;-89
2023/12/16 04:37:23;;;;;;;75.47;30.35;;;2.50;99.90;;;;;;5019952;28;20022;-90
2023/12/16 04:39:52;;;;;;;100.80;31.42;;;2.50;99.90;;;;;;5019332;28;20029;-87
2023/12/16 04:42:17;;;;;;;81.57;29.10;;;2.50;99.90;;;;;;5035567;28;20379;-89
2023/12/16 04:44:43;;;;;;;96.47;32.00;;;2.50;99.90;;;;;;5035473;28;20044;-89
2023/12/16 04:47:09;;;;;;;101.00;30.75;;;2.50;99.90;;;;;;5036076;28;20564;-89
2023/12/16 04:49:35;;;;;;;74.00;27.20;;;2.50;99.90;;;;;;5035773;28;20048;-90
2023/12/16 04:52:01;;;;;;;71.28;27.33;;;2.50;99.90;;;;;;5018964;28;20038;-90
2023/12/16 04:54:29;;;;;;;76.80;25.52;;;2.50;99.90;;;;;;5017856;28;20025;-89
2023/12/16 04:56:55;;;;;;;89.15;26.70;;;2.40;99.90;;;;;;5035392;28;20044;-89
2023/12/16 04:59:21;;;;;;;98.57;29.73;;;2.40;99.90;;;;;;5019357;28;20025;-89
2023/12/16 05:01:46;;;;;;;94.95;28.45;;;2.40;99.90;;;;;;5019088;28;20486;-90
2023/12/16 05:04:12;;;;;;;86.10;24.83;;;2.40;99.90;;;;;;5035541;28;20437;-89
2023/12/16 05:06:37;;;;;;;69.75;25.63;;;2.40;99.90;;;;;;5035782;28;20029;-89
2023/12/16 05:09:09;;;;;;;94.78;28.23;;;2.40;99.90;;;;;;5035146;28;20488;-89
2023/12/16 05:11:34;;;;;;;69.28;26.88;;;2.40;99.90;;;;;;5035169;28;20033;-90
2023/12/16 05:14:38;;;;;;;82.18;29.30;;;2.30;99.90;;;;;;5019358;28;20511;-90
2023/12/16 05:17:04;;;;;;;66.13;24.48;;;2.40;99.90;;;;;;5018770;28;20037;-90
2023/12/16 05:19:29;;;;;;;91.13;28.45;;;2.30;99.90;;;;;;5035140;28;20048;-90
2023/12/16 05:21:55;;;;;;;81.40;27.45;;;2.30;99.90;;;;;;5036389;28;20100;-90
2023/12/16 05:24:21;;;;;;;93.80;28.80;;;2.30;99.90;;;;;;5034874;28;20029;-89
2023/12/16 05:26:46;;;;;;;89.55;28.55;;;2.30;99.90;;;;;;5018275;28;20028;-89
2023/12/16 05:29:12;;;;;;;91.72;27.65;;;2.40;99.90;;;;;;5035088;28;20029;-90
2023/12/16 05:31:38;;;;;;;77.13;28.40;;;2.40;99.90;;;;;;5018316;28;20044;-89
2023/12/16 05:34:03;;;;;;;95.53;32.03;;;2.40;99.90;;;;;;5035014;28;20025;-90
2023/12/16 05:36:29;;;;;;;98.90;32.30;;;2.40;99.90;;;;;;5034391;28;20155;-89
2023/12/16 05:38:55;;;;;;;120.53;33.70;;;2.30;99.90;;;;;;5017944;28;20030;-90
2023/12/16 05:41:20;;;;;;;92.93;30.33;;;2.30;99.90;;;;;;5018225;28;20041;-89
2023/12/16 05:43:46;;;;;;;92.85;29.10;;;2.30;99.90;;;;;;5034524;28;20116;-90
2023/12/16 05:46:12;;;;;;;92.47;28.80;;;2.30;99.90;;;;;;5018102;28;20033;-90
2023/12/16 05:48:37;;;;;;;98.82;30.50;;;2.30;99.90;;;;;;5017613;28;20087;-90
2023/12/16 05:51:04;;;;;;;79.22;28.92;;;2.30;99.90;;;;;;5034194;28;20037;-90
2023/12/16 05:53:34;;;;;;;84.57;27.42;;;2.30;99.90;;;;;;5017866;28;20061;-90
2023/12/16 05:56:03;;;;;;;79.97;27.67;;;2.30;99.90;;;;;;5017694;28;20036;-89
2023/12/16 05:58:29;;;;;;;83.50;28.85;;;2.30;99.90;;;;;;5017884;28;20116;-90
2023/12/16 06:00:55;;;;;;;83.22;27.40;;;2.30;99.90;;;;;;5017866;28;20060;-90
2023/12/16 06:03:21;;;;;;;77.70;29.40;;;2.30;99.90;;;;;;5017717;28;20029;-89
2023/12/16 06:05:46;;;;;;;98.22;29.85;;;2.30;99.90;;;;;;5018284;28;20025;-89
2023/12/16 06:08:12;;;;;;;89.78;30.50;;;2.30;99.90;;;;;;5018045;28;20034;-89
2023/12/16 06:10:38;;;;;;;79.50;31.17;;;2.20;99.90;;;;;;5017654;28;20377;-89
2023/12/16 06:13:03;;;;;;;93.97;31.80;;;2.30;99.90;;;;;;5017646;28;20083;-89
2023/12/16 06:15:29;;;;;;;100.45;30.80;;;2.20;99.90;;;;;;5034479;28;20108;-89
2023/12/16 06:17:55;;;;;;;85.35;31.63;;;2.20;99.90;;;;;;5035579;28;20021;-89
2023/12/16 06:20:20;;;;;;;89.82;30.77;;;2.20;99.90;;;;;;5018414;28;20433;-88
2023/12/16 06:22:46;;;;;;;89.35;31.17;;;2.20;99.90;;;;;;5017767;28;20432;-89
2023/12/16 06:25:12;;;;;;;93.10;31.50;;;2.20;99.90;;;;;;5035295;28;20033;-89
2023/12/16 06:27:38;;;;;;;89.15;30.77;;;2.20;99.90;;;;;;5017190;28;20037;-89
2023/12/16 06:30:04;;;;;;;97.00;31.27;;;2.20;99.90;;;;;;5033750;28;20029;-89
2023/12/16 06:32:30;;;;;;;82.90;27.80;;;2.20;99.90;;;;;;5016912;28;20033;-88
2023/12/16 06:34:56;;;;;;;87.43;27.67;;;2.20;99.90;;;;;;5033324;28;20095;-89
2023/12/16 06:37:21;;;;;;;77.70;27.13;;;2.20;99.90;;;;;;5033875;28;20029;-89
2023/12/16 06:39:47;;;;;;;77.80;26.45;;;2.20;99.90;;;;;;5034784;28;20045;-89
2023/12/16 06:42:13;;;;;;;79.72;25.88;;;2.30;99.90;;;;;;5017330;28;20025;-89
2023/12/16 06:44:39;;;;;;;81.20;26.92;;;2.30;99.90;;;;;;5017053;28;20025;-89
2023/12/16 06:47:05;;;;;;;92.53;28.00;;;2.30;99.90;;;;;;5033218;28;20495;-88
2023/12/16 06:49:31;;;;;;;84.57;26.83;;;2.30;99.90;;;;;;5017214;28;20033;-89
2023/12/16 06:51:57;;;;;;;65.18;26.38;;;2.20;99.90;;;;;;5016636;28;20037;-89
2023/12/16 06:54:23;;;;;;;73.43;27.13;;;2.30;99.90;;;;;;5032900;28;20385;-89
2023/12/16 06:56:48;;;;;;;89.55;28.90;;;2.30;99.90;;;;;;5033743;28;20443;-89
2023/12/16 06:59:14;;;;;;;96.95;34.55;;;2.20;99.90;;;;;;5017166;28;20084;-89
2023/12/16 07:01:40;;;;;;;90.63;34.38;;;2.30;99.90;;;;;;5033947;28;20049;-89
2023/12/16 07:04:05;;;;;;;87.15;30.85;;;2.30;99.90;;;;;;5017504;28;20025;-89
2023/12/16 07:06:31;;;;;;;100.07;34.08;;;2.30;99.90;;;;;;5033516;28;20036;-89
2023/12/16 07:08:57;;;;;;;73.53;28.20;;;2.30;99.90;;;;;;5017043;28;20473;-89
2023/12/16 07:11:23;;;;;;;88.93;31.45;;;2.20;99.90;;;;;;5017827;28;20087;-89
2023/12/16 07:13:48;;;;;;;87.10;29.27;;;2.20;99.90;;;;;;5017810;28;20560;-89
2023/12/16 07:16:16;;;;;;;99.63;33.85;;;2.20;99.90;;;;;;5017777;28;20401;-87
2023/12/16 07:18:42;;;;;;;99.38;32.53;;;2.30;99.90;;;;;;5035322;28;20549;-87
2023/12/16 07:21:08;;;;;;;94.57;30.73;;;2.30;99.90;;;;;;5035890;28;20396;-87
2023/12/16 07:23:34;;;;;;;73.10;27.80;;;2.30;99.90;;;;;;5036252;28;20037;-87
2023/12/16 07:26:00;;;;;;;87.55;29.88;;;2.30;99.90;;;;;;5019291;28;20033;-87
2023/12/16 07:28:26;;;;;;;75.10;29.95;;;2.30;99.90;;;;;;5035339;28;20090;-87
2023/12/16 07:30:52;;;;;;;92.97;32.55;;;2.30;99.90;;;;;;5018637;28;20036;-87
2023/12/16 07:33:18;;;;;;;100.40;32.47;;;2.30;99.90;;;;;;5018674;28;20033;-87
2023/12/16 07:35:44;;;;;;;92.80;32.10;;;2.30;99.90;;;;;;5018228;28;20394;-87
2023/12/16 07:38:10;;;;;;;88.63;32.17;;;2.40;99.90;;;;;;5035265;28;20033;-87
2023/12/16 07:40:36;;;;;;;75.75;29.60;;;2.40;99.90;;;;;;5034719;28;20030;-87
2023/12/16 07:43:02;;;;;;;96.50;34.25;;;2.50;99.90;;;;;;5018077;28;20034;-87
2023/12/16 07:45:28;;;;;;;81.22;31.90;;;2.50;99.90;;;;;;5018721;28;20437;-86
2023/12/16 07:47:54;;;;;;;76.95;31.92;;;2.50;99.90;;;;;;5035248;28;20551;-87
2023/12/16 07:50:21;;;;;;;86.25;31.58;;;2.60;99.90;;;;;;5019297;28;20029;-87
2023/12/16 07:52:46;;;;;;;105.90;35.45;;;2.60;99.90;;;;;;5018706;28;20037;-87
2023/12/16 07:55:13;;;;;;;100.50;38.90;;;2.60;99.90;;;;;;5017437;28;20144;-87
2023/12/16 07:57:38;;;;;;;112.60;42.45;;;2.60;99.90;;;;;;5018001;28;20065;-87
2023/12/16 08:03:51;;;;;;;122.75;45.30;;;2.80;99.90;;;;;;5035872;28;20040;-86
2023/12/16 08:06:17;;;;;;;105.80;40.22;;;2.90;99.90;;;;;;5036082;28;20117;-87
2023/12/16 08:08:45;;;;;;;108.85;42.08;;;2.90;99.90;;;;;;5034993;28;20045;-88
2023/12/16 08:11:11;;;;;;;119.28;43.20;;;3.00;99.90;;;;;;5018196;28;20596;-87
2023/12/16 08:13:37;;;;;;;104.22;40.95;;;3.10;99.90;;;;;;5034821;28;20040;-87
2023/12/16 08:16:13;;;;;;;100.88;38.95;;;3.10;99.90;;;;;;5018767;28;20033;-87
2023/12/16 08:18:39;;;;;;;124.88;40.88;;;3.20;99.90;;;;;;5034904;28;20041;-87
2023/12/16 08:21:04;;;;;;;92.90;37.00;;;3.20;99.90;;;;;;5034735;28;20595;-87
2023/12/16 08:23:30;;;;;;;108.90;38.08;;;3.30;99.90;;;;;;5018499;28;20084;-87
2023/12/16 08:26:25;;;;;;;90.90;38.90;;;3.30;99.90;;;;;;5018038;28;20036;-87
2023/12/16 08:28:51;;;;;;;92.50;37.90;;;3.40;99.90;;;;;;5018514;28;20037;-87
2023/12/16 08:31:17;;;;;;;101.65;37.72;;;3.40;99.90;;;;;;5018315;28;20044;-87
2023/12/16 08:33:43;;;;;;;119.32;39.58;;;3.50;99.90;;;;;;5018268;28;20037;-87
2023/12/16 08:36:09;;;;;;;91.40;36.83;;;3.50;99.90;;;;;;5017989;28;20033;-87
2023/12/16 08:38:39;;;;;;;87.75;37.28;;;3.60;99.90;;;;;;5018368;28;20389;-87
2023/12/16 08:41:10;;;;;;;96.82;38.97;;;3.80;99.90;;;;;;5018018;28;20033;-87
2023/12/16 08:43:37;;;;;;;94.18;41.03;;;3.90;99.90;;;;;;5017969;28;20056;-87
2023/12/16 08:46:04;;;;;;;87.68;37.30;;;3.90;99.90;;;;;;5034484;28;20084;-87
2023/12/16 08:48:30;;;;;;;93.82;37.85;;;4.00;99.90;;;;;;5034472;28;20064;-87
2023/12/16 08:50:58;;;;;;;80.72;35.42;;;4.00;99.90;;;;;;5033986;28;20095;-87
2023/12/16 08:53:24;;;;;;;91.20;35.20;;;4.00;99.90;;;;;;5017972;28;20071;-87
2023/12/16 08:55:50;;;;;;;90.82;34.15;;;4.00;99.90;;;;;;5034377;28;20096;-87
2023/12/16 08:58:17;;;;;;;78.43;33.80;;;4.00;99.90;;;;;;5018423;28;20436;-87
2023/12/16 09:00:42;;;;;;;92.65;29.55;;;4.00;99.90;;;;;;5034208;28;20171;-87
2023/12/16 09:03:08;;;;;;;69.25;28.35;;;4.00;99.90;;;;;;5018188;28;20493;-87
2023/12/16 09:05:36;;;;;;;74.03;27.00;;;4.10;99.90;;;;;;5034741;28;20029;-87
2023/12/16 09:08:02;;;;;;;61.95;27.17;;;4.20;99.90;;;;;;5017807;28;20025;-85
2023/12/16 09:10:28;;;;;;;72.28;25.05;;;4.30;99.90;;;;;;5017520;28;20041;-88
2023/12/16 09:12:54;;;;;;;65.13;22.88;;;4.40;99.90;;;;;;5033621;28;20036;-87
2023/12/16 09:15:19;;;;;;;67.28;23.77;;;4.40;99.90;;;;;;5033916;28;20030;-87
2023/12/16 09:17:47;;;;;;;60.03;23.20;;;4.40;99.90;;;;;;5017512;28;20033;-87
2023/12/16 09:20:14;;;;;;;67.68;25.50;;;4.50;99.90;;;;;;5033936;28;20429;-87
2023/12/16 09:22:39;;;;;;;60.72;26.75;;;4.50;99.90;;;;;;5033953;28;20084;-87
2023/12/16 09:25:06;;;;;;;77.15;31.48;;;4.60;99.90;;;;;;5033904;28;20049;-88
2023/12/16 09:27:32;;;;;;;75.95;30.65;;;4.70;99.90;;;;;;5035048;28;20688;-87
2023/12/16 09:29:58;;;;;;;75.60;30.00;;;4.70;99.90;;;;;;5033964;28;20022;-88
2023/12/16 09:32:23;;;;;;;63.88;27.42;;;4.70;99.90;;;;;;5017082;28;20492;-88
2023/12/16 09:34:49;;;;;;;61.05;29.23;;;5.00;99.90;;;;;;5034905;28;20056;-87
2023/12/16 09:37:15;;;;;;;94.57;42.17;;;5.00;99.90;;;;;;5033894;28;20499;-88
2023/12/16 09:39:41;;;;;;;58.63;26.83;;;5.00;99.90;;;;;;5016345;28;20029;-87
2023/12/16 09:42:07;;;;;;;54.30;22.88;;;5.10;99.90;;;;;;5017408;28;20029;-87
2023/12/16 09:44:37;;;;;;;60.35;28.80;;;5.20;99.90;;;;;;5016633;28;20120;-88
2023/12/16 09:47:03;;;;;;;46.42;19.27;;;5.40;99.90;;;;;;5032846;28;20041;-87
2023/12/16 09:49:33;;;;;;;48.35;18.17;;;5.40;99.90;;;;;;5017310;28;20127;-87
2023/12/16 09:51:59;;;;;;;45.60;17.85;;;5.50;99.90;;;;;;5032963;28;20128;-87
2023/12/16 09:54:25;;;;;;;39.50;14.65;;;5.50;99.90;;;;;;5016872;28;20029;-87
2023/12/16 09:56:51;;;;;;;40.42;16.38;;;5.60;99.90;;;;;;5016774;28;20392;-87
2023/12/16 09:59:17;;;;;;;37.95;16.65;;;5.50;99.90;;;;;;5033114;28;20382;-87
2023/12/16 10:01:51;;;;;;;41.67;18.00;;;5.60;99.90;;;;;;5016723;28;20664;-87
2023/12/16 10:04:17;;;;;;;44.83;16.40;;;5.50;99.90;;;;;;5016494;28;20033;-87
2023/12/16 10:06:42;;;;;;;36.83;15.88;;;5.40;99.90;;;;;;5016561;28;20131;-87
2023/12/16 10:09:08;;;;;;;36.60;14.45;;;5.40;99.90;;;;;;5016324;28;20128;-87
2023/12/16 10:11:40;;;;;;;38.05;16.33;;;5.20;99.90;;;;;;5016281;28;20070;-87
2023/12/16 10:14:07;;;;;;;35.33;14.02;;;5.30;99.90;;;;;;5032940;28;20055;-87
2023/12/16 10:16:33;;;;;;;41.72;14.52;;;5.30;99.90;;;;;;5016134;28;20084;-87
2023/12/16 10:18:59;;;;;;;29.15;12.93;;;5.20;99.90;;;;;;5016195;28;20033;-87
2023/12/16 10:21:33;;;;;;;45.92;22.30;;;5.30;99.90;;;;;;5015896;28;20040;-87
2023/12/16 10:24:02;;;;;;;40.03;19.33;;;5.30;99.90;;;;;;5016293;28;20079;-87
2023/12/16 10:26:30;;;;;;;39.08;15.73;;;5.60;99.90;;;;;;5016767;28;20546;-87
2023/12/16 10:28:57;;;;;;;34.40;13.27;;;5.60;99.90;;;;;;5032981;28;20076;-87
2023/12/16 10:31:24;;;;;;;45.28;17.90;;;5.80;99.90;;;;;;5032331;28;20090;-87
2023/12/16 10:33:51;;;;;;;40.33;17.25;;;5.60;99.90;;;;;;5032975;28;20113;-87
2023/12/16 10:36:17;;;;;;;38.75;18.92;;;5.50;99.90;;;;;;5032137;28;20132;-87
2023/12/16 10:38:43;;;;;;;35.60;15.48;;;5.50;99.90;;;;;;5015752;28;20040;-87
2023/12/16 10:41:11;;;;;;;34.15;15.73;;;5.40;99.90;;;;;;5016054;28;20034;-87
2023/12/16 10:43:37;;;;;;;30.92;14.35;;;5.50;99.90;;;;;;5032235;28;20029;-87
2023/12/16 10:46:06;;;;;;;57.67;25.15;;;5.60;99.90;;;;;;5032374;28;20040;-87
2023/12/16 10:48:34;;;;;;;40.72;18.40;;;5.80;99.90;;;;;;5032705;28;20375;-87
2023/12/16 10:51:05;;;;;;;26.92;13.85;;;5.90;99.90;;;;;;5016026;28;20037;-87
2023/12/16 10:53:41;;;;;;;35.75;15.82;;;5.90;99.90;;;;;;5032188;28;20107;-87
2023/12/16 10:56:18;;;;;;;33.45;12.95;;;5.90;99.90;;;;;;5031674;28;20540;-87
2023/12/16 10:59:11;;;;;;;29.23;13.55;;;5.80;99.90;;;;;;5015263;28;20035;-87
2023/12/16 11:01:48;;;;;;;32.95;13.95;;;5.90;99.90;;;;;;5011647;28;20489;-87
2023/12/16 11:04:16;;;;;;;37.28;16.20;;;6.00;99.90;;;;;;5015118;28;20033;-87
2023/12/16 11:06:56;;;;;;;34.17;14.13;;;5.80;99.90;;;;;;5014688;28;20500;-87
2023/12/16 11:09:22;;;;;;;45.90;24.42;;;6.00;99.90;;;;;;5032006;28;20676;-87
2023/12/16 11:11:48;;;;;;;48.60;25.75;;;6.10;99.90;;;;;;5015022;28;20136;-86
2023/12/16 11:14:18;;;;;;;28.60;15.23;;;6.10;99.90;;;;;;5015116;28;20493;-87
2023/12/16 11:20:40;;;;;;;29.90;15.38;;;5.90;99.90;;;;;;5032126;28;20048;-87
2023/12/16 11:23:06;;;;;;;30.83;14.68;;;6.00;99.90;;;;;;5031681;28;20038;-86
2023/12/16 11:25:34;;;;;;;24.17;13.27;;;5.90;99.90;;;;;;5031575;28;20052;-87
2023/12/16 11:28:01;;;;;;;60.63;21.98;;;5.90;99.90;;;;;;5015298;28;20087;-87
2023/12/16 11:30:30;;;;;;;28.38;15.35;;;6.00;99.90;;;;;;5015608;28;20076;-87
2023/12/16 11:32:57;;;;;;;31.33;13.57;;;5.90;99.90;;;;;;5031805;28;20481;-87
2023/12/16 11:35:45;;;;;;;23.48;10.15;;;5.80;99.90;;;;;;5015459;28;20034;-87
2023/12/16 11:38:44;;;;;;;20.40;12.30;;;6.00;99.90;;;;;;5031455;28;20112;-87
2023/12/16 11:41:49;;;;;;;30.48;15.18;;;6.10;99.90;;;;;;5031595;28;20030;-87
2023/12/16 11:44:14;;;;;;;19.77;9.05;;;6.20;99.90;;;;;;5015168;28;20048;-87
2023/12/16 11:46:42;;;;;;;44.83;21.13;;;6.20;99.90;;;;;;5014845;28;20029;-86
2023/12/16 11:49:15;;;;;;;28.73;12.05;;;6.10;99.90;;;;;;5015184;28;20123;-87
2023/12/16 11:51:41;;;;;;;35.70;15.43;;;5.90;99.90;;;;;;5015252;28;20091;-87
2023/12/16 11:54:09;;;;;;;60.50;27.50;;;5.80;99.90;;;;;;5015216;28;20124;-87
2023/12/16 11:56:35;;;;;;;36.42;20.13;;;5.80;99.90;;;;;;5032513;28;20504;-87
2023/12/16 11:59:02;;;;;;;22.73;11.80;;;5.80;99.90;;;;;;5015382;28;20033;-87
2023/12/16 12:01:32;;;;;;;17.80;8.73;;;5.90;99.90;;;;;;5014898;28;20119;-87
2023/12/16 12:04:00;;;;;;;26.67;9.23;;;5.90;99.90;;;;;;5033903;28;20034;-87
2023/12/16 12:06:26;;;;;;;17.30;6.95;;;5.90;99.90;;;;;;5034772;28;20421;-87
2023/12/16 12:08:52;;;;;;;27.88;13.05;;;5.80;99.90;;;;;;5018560;28;20029;-87
2023/12/16 12:11:20;;;;;;;24.58;12.38;;;5.80;99.90;;;;;;5035557;28;20033;-87
2023/12/16 12:13:47;;;;;;;20.05;9.98;;;5.70;99.90;;;;;;5034882;28;20037;-87
2023/12/16 12:16:13;;;;;;;16.77;6.85;;;5.80;99.90;;;;;;5018303;28;20492;-87
2023/12/16 12:18:40;;;;;;;22.17;7.40;;;5.90;99.90;;;;;;5018441;28;20080;-87
2023/12/16 12:21:10;;;;;;;15.93;7.53;;;5.70;99.90;;;;;;5035953;28;20036;-87
2023/12/16 12:23:42;;;;;;;40.10;15.93;;;5.70;99.90;;;;;;5017985;28;20034;-87
2023/12/16 12:26:08;;;;;;;18.85;9.32;;;5.50;99.90;;;;;;5035768;28;20037;-87
2023/12/16 12:28:33;;;;;;;17.75;7.25;;;5.30;99.90;;;;;;5018723;28;20389;-87
2023/12/16 12:31:04;;;;;;;21.48;7.63;;;5.20;99.90;;;;;;5018292;28;20503;-87
2023/12/16 12:33:32;;;;;;;16.95;6.22;;;5.10;99.90;;;;;;5034919;28;20092;-87
2023/12/16 12:35:58;;;;;;;16.48;7.78;;;5.10;99.90;;;;;;5018372;28;20037;-87
2023/12/16 12:38:23;;;;;;;24.17;8.23;;;4.90;99.90;;;;;;5017881;28;20120;-87
2023/12/16 12:41:02;;;;;;;18.83;7.03;;;4.80;99.90;;;;;;5017963;28;20125;-87
2023/12/16 12:43:33;;;;;;;23.60;9.30;;;4.80;99.90;;;;;;5034465;28;20029;-86